sensor_id;sensor_type;location;lat;lon;timestamp;pressure;altitude;pressure_sealevel;temperature;humidity
6020;BME280;3038;51.122;6.840;2022-12-07T00:01:38;101452.25;;;5.14;89.23
6020;BME280;3038;51.122;6.840;2022-12-07T00:04:04;101458.56;;;5.12;89.06
6020;BME280;3038;51.122;6.840;2022-12-07T00:06:38;101458.25;;;5.16;89.03
6020;BME280;3038;51.122;6.840;2022-12-07T00:09:06;101459.00;;;5.19;88.65
6020;BME280;3038;51.122;6.840;2022-12-07T00:11:32;101452.97;;;5.16;88.97
6020;BME280;3038;51.122;6.840;2022-12-07T00:13:59;101459.00;;;5.19;88.98
6020;BME280;3038;51.122;6.840;2022-12-07T00:16:27;101453.81;;;5.17;88.46
6020;BME280;3038;51.122;6.840;2022-12-07T00:18:53;101450.34;;;5.16;88.47
6020;BME280;3038;51.122;6.840;2022-12-07T00:21:20;101448.88;;;5.12;88.53
6020;BME280;3038;51.122;6.840;2022-12-07T00:23:47;101456.75;;;5.12;88.96
6020;BME280;3038;51.122;6.840;2022-12-07T00:26:19;101455.84;;;5.13;88.73
6020;BME280;3038;51.122;6.840;2022-12-07T00:28:53;101451.84;;;5.08;88.42
6020;BME280;3038;51.122;6.840;2022-12-07T00:31:21;101450.78;;;5.10;89.13
6020;BME280;3038;51.122;6.840;2022-12-07T00:33:47;101454.88;;;5.14;88.63
6020;BME280;3038;51.122;6.840;2022-12-07T00:36:16;101443.53;;;5.14;88.22
6020;BME280;3038;51.122;6.840;2022-12-07T00:38:42;101450.59;;;5.13;88.31
6020;BME280;3038;51.122;6.840;2022-12-07T00:41:11;101449.09;;;5.09;88.88
6020;BME280;3038;51.122;6.840;2022-12-07T00:43:37;101449.81;;;5.11;88.70
6020;BME280;3038;51.122;6.840;2022-12-07T00:46:03;101448.16;;;5.10;88.50
6020;BME280;3038;51.122;6.840;2022-12-07T00:48:28;101447.00;;;5.14;88.35
6020;BME280;3038;51.122;6.840;2022-12-07T00:50:54;101450.34;;;5.16;88.75
6020;BME280;3038;51.122;6.840;2022-12-07T00:53:19;101452.66;;;5.21;88.34
6020;BME280;3038;51.122;6.840;2022-12-07T00:55:45;101448.66;;;5.15;88.53
6020;BME280;3038;51.122;6.840;2022-12-07T00:58:11;101437.72;;;5.09;88.50
6020;BME280;3038;51.122;6.840;2022-12-07T01:00:38;101440.06;;;5.13;88.62
6020;BME280;3038;51.122;6.840;2022-12-07T01:03:05;101438.47;;;5.11;88.80
6020;BME280;3038;51.122;6.840;2022-12-07T01:05:31;101436.47;;;5.14;88.69
6020;BME280;3038;51.122;6.840;2022-12-07T01:07:56;101443.53;;;5.14;88.73
6020;BME280;3038;51.122;6.840;2022-12-07T01:10:22;101431.84;;;5.05;88.74
6020;BME280;3038;51.122;6.840;2022-12-07T01:12:47;101435.94;;;5.09;88.88
6020;BME280;3038;51.122;6.840;2022-12-07T01:15:13;101429.72;;;5.10;88.68
6020;BME280;3038;51.122;6.840;2022-12-07T01:17:38;101439.28;;;5.11;88.79
6020;BME280;3038;51.122;6.840;2022-12-07T01:20:04;101435.19;;;5.07;88.70
6020;BME280;3038;51.122;6.840;2022-12-07T01:22:30;101438.47;;;5.11;89.43
6020;BME280;3038;51.122;6.840;2022-12-07T01:24:55;101440.44;;;5.07;89.19
6020;BME280;3038;51.122;6.840;2022-12-07T01:27:20;101437.63;;;4.98;89.02
6020;BME280;3038;51.122;6.840;2022-12-07T01:29:46;101440.88;;;5.01;88.99
6020;BME280;3038;51.122;6.840;2022-12-07T01:32:11;101438.13;;;5.03;89.50
6020;BME280;3038;51.122;6.840;2022-12-07T01:34:37;101433.00;;;5.01;89.03
6020;BME280;3038;51.122;6.840;2022-12-07T01:37:02;101437.53;;;4.99;89.52
6020;BME280;3038;51.122;6.840;2022-12-07T01:39:27;101442.56;;;5.02;89.61
6020;BME280;3038;51.122;6.840;2022-12-07T01:41:53;101432.16;;;5.01;89.56
6020;BME280;3038;51.122;6.840;2022-12-07T01:44:29;101436.25;;;5.05;89.49
6020;BME280;3038;51.122;6.840;2022-12-07T01:47:00;101432.47;;;5.09;88.90
6020;BME280;3038;51.122;6.840;2022-12-07T01:49:33;101432.56;;;5.07;88.98
6020;BME280;3038;51.122;6.840;2022-12-07T01:52:25;101430.03;;;5.06;89.18
6020;BME280;3038;51.122;6.840;2022-12-07T01:54:54;101433.50;;;5.06;89.11
6020;BME280;3038;51.122;6.840;2022-12-07T01:57:22;101429.72;;;5.10;88.83
6020;BME280;3038;51.122;6.840;2022-12-07T01:59:49;101422.78;;;5.09;88.98
6020;BME280;3038;51.122;6.840;2022-12-07T02:02:23;101417.72;;;5.06;89.01
6020;BME280;3038;51.122;6.840;2022-12-07T02:04:52;101410.06;;;5.03;89.11
6020;BME280;3038;51.122;6.840;2022-12-07T02:07:20;101409.09;;;5.04;89.41
6020;BME280;3038;51.122;6.840;2022-12-07T02:09:45;101411.94;;;5.01;88.63
6020;BME280;3038;51.122;6.840;2022-12-07T02:12:11;101414.69;;;5.00;89.31
6020;BME280;3038;51.122;6.840;2022-12-07T02:14:36;101418.03;;;5.02;89.04
6020;BME280;3038;51.122;6.840;2022-12-07T02:17:14;101421.31;;;5.05;89.40
6020;BME280;3038;51.122;6.840;2022-12-07T02:20:11;101422.78;;;5.09;88.79
6020;BME280;3038;51.122;6.840;2022-12-07T02:23:51;101421.09;;;5.08;88.77
6020;BME280;3038;51.122;6.840;2022-12-07T02:26:21;101416.56;;;5.10;88.94
6020;BME280;3038;51.122;6.840;2022-12-07T02:29:10;101404.88;;;5.14;88.58
6020;BME280;3038;51.122;6.840;2022-12-07T02:31:39;101417.53;;;5.09;88.93
6020;BME280;3038;51.122;6.840;2022-12-07T02:36:49;101421.31;;;5.05;89.18
6020;BME280;3038;51.122;6.840;2022-12-07T02:39:23;101416.25;;;5.02;89.09
6020;BME280;3038;51.122;6.840;2022-12-07T02:41:54;101419.63;;;5.04;88.70
6020;BME280;3038;51.122;6.840;2022-12-07T02:44:23;101421.63;;;5.01;89.10
6020;BME280;3038;51.122;6.840;2022-12-07T02:46:54;101414.81;;;4.98;88.84
6020;BME280;3038;51.122;6.840;2022-12-07T02:49:22;101419.31;;;4.96;89.35
6020;BME280;3038;51.122;6.840;2022-12-07T02:51:49;101417.09;;;5.03;88.84
6020;BME280;3038;51.122;6.840;2022-12-07T02:54:17;101412.91;;;5.00;88.56
6020;BME280;3038;51.122;6.840;2022-12-07T02:56:50;101410.38;;;4.99;88.60
6020;BME280;3038;51.122;6.840;2022-12-07T03:08:06;101415.53;;;5.00;89.43
6020;BME280;3038;51.122;6.840;2022-12-07T03:10:54;101415.00;;;5.08;88.91
6020;BME280;3038;51.122;6.840;2022-12-07T03:13:50;101413.41;;;5.05;88.58
6020;BME280;3038;51.122;6.840;2022-12-07T03:16:29;101422.34;;;5.03;88.68
6020;BME280;3038;51.122;6.840;2022-12-07T03:19:02;101419.72;;;5.03;88.53
6020;BME280;3038;51.122;6.840;2022-12-07T03:21:36;101420.25;;;4.95;88.83
6020;BME280;3038;51.122;6.840;2022-12-07T03:24:07;101420.78;;;5.00;89.23
6020;BME280;3038;51.122;6.840;2022-12-07T03:26:38;101417.09;;;5.03;88.84
6020;BME280;3038;51.122;6.840;2022-12-07T03:29:18;101411.22;;;4.99;89.17
6020;BME280;3038;51.122;6.840;2022-12-07T03:31:48;101409.00;;;4.93;89.02
6020;BME280;3038;51.122;6.840;2022-12-07T03:34:40;101410.38;;;4.86;89.74
6020;BME280;3038;51.122;6.840;2022-12-07T03:37:15;101417.13;;;4.90;89.58
6020;BME280;3038;51.122;6.840;2022-12-07T03:40:21;101421.63;;;4.88;89.22
6020;BME280;3038;51.122;6.840;2022-12-07T03:42:48;101415.75;;;4.84;89.20
6020;BME280;3038;51.122;6.840;2022-12-07T03:45:15;101420.78;;;4.87;89.41
6020;BME280;3038;51.122;6.840;2022-12-07T03:53:50;101412.88;;;4.87;89.11
6020;BME280;3038;51.122;6.840;2022-12-07T03:56:18;101417.31;;;4.87;89.36
6020;BME280;3038;51.122;6.840;2022-12-07T03:58:44;101412.06;;;4.87;88.98
6020;BME280;3038;51.122;6.840;2022-12-07T04:01:10;101418.78;;;4.91;88.97
6020;BME280;3038;51.122;6.840;2022-12-07T04:03:35;101414.69;;;4.87;88.71
6020;BME280;3038;51.122;6.840;2022-12-07T04:06:01;101407.88;;;4.84;89.02
6020;BME280;3038;51.122;6.840;2022-12-07T04:08:26;101413.97;;;4.85;89.29
6020;BME280;3038;51.122;6.840;2022-12-07T04:10:52;101406.78;;;4.87;89.14
6020;BME280;3038;51.122;6.840;2022-12-07T04:13:17;101409.53;;;4.85;89.34
6020;BME280;3038;51.122;6.840;2022-12-07T04:15:43;101410.38;;;4.86;88.91
6020;BME280;3038;51.122;6.840;2022-12-07T04:18:08;101407.03;;;4.84;88.73
6020;BME280;3038;51.122;6.840;2022-12-07T04:20:33;101412.69;;;4.78;88.60
6020;BME280;3038;51.122;6.840;2022-12-07T04:22:59;101408.50;;;4.75;88.58
6020;BME280;3038;51.122;6.840;2022-12-07T04:25:24;101407.22;;;4.68;88.54
6020;BME280;3038;51.122;6.840;2022-12-07T04:27:49;101410.16;;;4.63;89.18
6020;BME280;3038;51.122;6.840;2022-12-07T04:30:15;101412.25;;;4.58;89.12
6020;BME280;3038;51.122;6.840;2022-12-07T04:32:40;101410.38;;;4.60;89.10
6020;BME280;3038;51.122;6.840;2022-12-07T04:35:06;101407.63;;;4.62;88.96
6020;BME280;3038;51.122;6.840;2022-12-07T04:37:32;101412.69;;;4.65;89.48
6020;BME280;3038;51.122;6.840;2022-12-07T04:39:57;101410.47;;;4.59;89.10
6020;BME280;3038;51.122;6.840;2022-12-07T04:42:23;101409.13;;;4.66;89.63
6020;BME280;3038;51.122;6.840;2022-12-07T04:44:48;101411.88;;;4.64;89.23
6020;BME280;3038;51.122;6.840;2022-12-07T04:47:13;101407.97;;;4.70;88.87
6020;BME280;3038;51.122;6.840;2022-12-07T04:49:39;101406.81;;;4.74;89.04
6020;BME280;3038;51.122;6.840;2022-12-07T04:52:04;101401.75;;;4.71;89.17
6020;BME280;3038;51.122;6.840;2022-12-07T04:54:30;101402.06;;;4.67;88.71
6020;BME280;3038;51.122;6.840;2022-12-07T04:56:55;101396.28;;;4.61;88.79
6020;BME280;3038;51.122;6.840;2022-12-07T04:59:20;101393.84;;;4.58;89.25
6020;BME280;3038;51.122;6.840;2022-12-07T05:01:46;101394.59;;;4.60;89.47
6020;BME280;3038;51.122;6.840;2022-12-07T05:04:11;101401.34;;;4.64;89.33
6020;BME280;3038;51.122;6.840;2022-12-07T05:06:37;101404.69;;;4.67;89.11
6020;BME280;3038;51.122;6.840;2022-12-07T05:09:02;101406.59;;;4.64;89.06
6020;BME280;3038;51.122;6.840;2022-12-07T05:11:28;101403.44;;;4.59;88.78
6020;BME280;3038;51.122;6.840;2022-12-07T05:16:34;101408.25;;;4.53;89.58
6020;BME280;3038;51.122;6.840;2022-12-07T05:18:59;101395.72;;;4.44;88.95
6020;BME280;3038;51.122;6.840;2022-12-07T05:21:25;101396.69;;;4.43;89.06
6020;BME280;3038;51.122;6.840;2022-12-07T05:23:50;101392.69;;;4.37;89.38
6020;BME280;3038;51.122;6.840;2022-12-07T05:26:16;101403.41;;;4.34;89.76
6020;BME280;3038;51.122;6.840;2022-12-07T05:28:42;101397.53;;;4.30;90.25
6020;BME280;3038;51.122;6.840;2022-12-07T05:31:08;101397.31;;;4.33;89.83
6020;BME280;3038;51.122;6.840;2022-12-07T05:33:33;101415.41;;;4.38;90.09
6020;BME280;3038;51.122;6.840;2022-12-07T05:35:59;101422.03;;;4.44;89.59
6020;BME280;3038;51.122;6.840;2022-12-07T05:38:32;101405.84;;;4.50;89.42
6020;BME280;3038;51.122;6.840;2022-12-07T05:41:05;101408.91;;;4.56;89.21
6020;BME280;3038;51.122;6.840;2022-12-07T05:43:31;101405.13;;;4.60;88.42
6020;BME280;3038;51.122;6.840;2022-12-07T05:45:57;101398.56;;;4.53;88.76
6020;BME280;3038;51.122;6.840;2022-12-07T05:48:23;101403.13;;;4.51;89.03
6020;BME280;3038;51.122;6.840;2022-12-07T05:50:49;101404.47;;;4.44;88.72
6020;BME280;3038;51.122;6.840;2022-12-07T05:53:14;101401.09;;;4.42;89.21
6020;BME280;3038;51.122;6.840;2022-12-07T05:55:40;101403.19;;;4.37;88.92
6020;BME280;3038;51.122;6.840;2022-12-07T05:58:05;101392.69;;;4.37;89.39
6020;BME280;3038;51.122;6.840;2022-12-07T06:00:49;101392.16;;;4.32;89.03
6020;BME280;3038;51.122;6.840;2022-12-07T06:03:15;101383.19;;;4.34;89.36
6020;BME280;3038;51.122;6.840;2022-12-07T06:05:40;101392.50;;;4.40;88.84
6020;BME280;3038;51.122;6.840;2022-12-07T06:08:06;101392.06;;;4.46;88.76
6020;BME280;3038;51.122;6.840;2022-12-07T06:10:31;101396.19;;;4.50;88.30
6020;BME280;3038;51.122;6.840;2022-12-07T06:12:57;101397.84;;;4.51;88.26
6020;BME280;3038;51.122;6.840;2022-12-07T06:15:22;101405.13;;;4.60;88.52
6020;BME280;3038;51.122;6.840;2022-12-07T06:17:48;101403.44;;;4.59;88.23
6020;BME280;3038;51.122;6.840;2022-12-07T06:20:13;101401.00;;;4.56;88.13
6020;BME280;3038;51.122;6.840;2022-12-07T06:22:39;101407.00;;;4.58;88.17
6020;BME280;3038;51.122;6.840;2022-12-07T06:25:04;101413.53;;;4.66;88.19
6020;BME280;3038;51.122;6.840;2022-12-07T06:27:30;101412.78;;;4.63;87.94
6020;BME280;3038;51.122;6.840;2022-12-07T06:29:56;101404.91;;;4.63;88.30
6020;BME280;3038;51.122;6.840;2022-12-07T06:32:21;101407.00;;;4.58;87.89
6020;BME280;3038;51.122;6.840;2022-12-07T06:34:47;101397.09;;;4.49;88.46
6020;BME280;3038;51.122;6.840;2022-12-07T06:37:12;101412.47;;;4.43;88.09
6020;BME280;3038;51.122;6.840;2022-12-07T06:39:38;101408.47;;;4.37;88.92
6020;BME280;3038;51.122;6.840;2022-12-07T06:42:04;101407.81;;;4.33;88.77
6020;BME280;3038;51.122;6.840;2022-12-07T06:44:29;101412.03;;;4.36;89.10
6020;BME280;3038;51.122;6.840;2022-12-07T06:46:55;101409.94;;;4.41;88.88
6020;BME280;3038;51.122;6.840;2022-12-07T06:49:20;101410.47;;;4.46;88.72
6020;BME280;3038;51.122;6.840;2022-12-07T06:51:46;101405.75;;;4.51;88.87
6020;BME280;3038;51.122;6.840;2022-12-07T06:54:13;101418.88;;;4.51;88.75
6020;BME280;3038;51.122;6.840;2022-12-07T06:56:38;101427.50;;;4.53;88.94
6020;BME280;3038;51.122;6.840;2022-12-07T06:59:05;101421.09;;;4.57;88.45
6020;BME280;3038;51.122;6.840;2022-12-07T07:01:32;101418.88;;;4.64;88.90
6020;BME280;3038;51.122;6.840;2022-12-07T07:03:57;101423.63;;;4.72;88.20
6020;BME280;3038;51.122;6.840;2022-12-07T07:06:23;101418.38;;;4.72;88.13
6020;BME280;3038;51.122;6.840;2022-12-07T07:08:49;101414.78;;;4.73;88.16
6020;BME280;3038;51.122;6.840;2022-12-07T07:11:14;101411.63;;;4.68;87.72
6020;BME280;3038;51.122;6.840;2022-12-07T07:13:40;101409.13;;;4.66;88.33
6020;BME280;3038;51.122;6.840;2022-12-07T07:16:06;101408.28;;;4.66;87.86
6020;BME280;3038;51.122;6.840;2022-12-07T07:18:31;101405.97;;;4.61;88.07
6020;BME280;3038;51.122;6.840;2022-12-07T07:20:57;101402.69;;;4.57;88.03
6020;BME280;3038;51.122;6.840;2022-12-07T07:23:22;101404.38;;;4.58;88.08
6020;BME280;3038;51.122;6.840;2022-12-07T07:25:48;101415.84;;;4.57;88.70
6020;BME280;3038;51.122;6.840;2022-12-07T07:28:14;101413.97;;;4.59;88.65
6020;BME280;3038;51.122;6.840;2022-12-07T07:30:39;101411.34;;;4.59;88.95
6020;BME280;3038;51.122;6.840;2022-12-07T07:33:05;101412.47;;;4.55;88.13
6020;BME280;3038;51.122;6.840;2022-12-07T07:35:32;101412.69;;;4.52;88.93
6020;BME280;3038;51.122;6.840;2022-12-07T07:37:58;101413.75;;;4.50;88.88
6020;BME280;3038;51.122;6.840;2022-12-07T07:40:24;101418.13;;;4.49;88.31
6020;BME280;3038;51.122;6.840;2022-12-07T07:42:51;101423.63;;;4.46;88.50
6020;BME280;3038;51.122;6.840;2022-12-07T07:45:18;101422.97;;;4.43;88.64
6020;BME280;3038;51.122;6.840;2022-12-07T07:47:43;101423.09;;;4.41;88.91
6020;BME280;3038;51.122;6.840;2022-12-07T07:50:09;101425.91;;;4.38;89.17
6020;BME280;3038;51.122;6.840;2022-12-07T07:52:34;101426.75;;;4.38;89.12
6020;BME280;3038;51.122;6.840;2022-12-07T07:55:00;101434.31;;;4.43;88.99
6020;BME280;3038;51.122;6.840;2022-12-07T07:57:25;101425.09;;;4.50;88.53
6020;BME280;3038;51.122;6.840;2022-12-07T07:59:50;101437.06;;;4.54;88.78
6020;BME280;3038;51.122;6.840;2022-12-07T08:02:18;101437.28;;;4.51;88.82
6020;BME280;3038;51.122;6.840;2022-12-07T08:04:44;101441.94;;;4.60;88.37
6020;BME280;3038;51.122;6.840;2022-12-07T08:07:10;101442.34;;;4.54;88.53
6020;BME280;3038;51.122;6.840;2022-12-07T08:09:36;101431.59;;;4.45;88.53
6020;BME280;3038;51.122;6.840;2022-12-07T08:12:01;101434.75;;;4.37;88.68
6020;BME280;3038;51.122;6.840;2022-12-07T08:14:27;101436.44;;;4.38;88.31
6020;BME280;3038;51.122;6.840;2022-12-07T08:16:54;101432.84;;;4.39;88.64
6020;BME280;3038;51.122;6.840;2022-12-07T08:19:19;101440.97;;;4.36;89.02
6020;BME280;3038;51.122;6.840;2022-12-07T08:21:44;101444.66;;;4.46;88.56
6020;BME280;3038;51.122;6.840;2022-12-07T08:24:10;101448.53;;;4.53;88.48
6020;BME280;3038;51.122;6.840;2022-12-07T08:26:35;101448.88;;;4.61;88.15
6020;BME280;3038;51.122;6.840;2022-12-07T08:29:01;101455.81;;;4.62;88.08
6020;BME280;3038;51.122;6.840;2022-12-07T08:31:27;101449.59;;;4.63;87.66
6020;BME280;3038;51.122;6.840;2022-12-07T08:33:54;101453.00;;;4.66;87.87
6020;BME280;3038;51.122;6.840;2022-12-07T08:36:19;101444.16;;;4.67;87.72
6020;BME280;3038;51.122;6.840;2022-12-07T08:38:45;101458.78;;;4.71;87.77
6020;BME280;3038;51.122;6.840;2022-12-07T08:41:10;101452.34;;;4.87;87.32
6020;BME280;3038;51.122;6.840;2022-12-07T08:43:36;101450.47;;;5.02;87.29
6020;BME280;3038;51.122;6.840;2022-12-07T08:46:12;101452.88;;;5.05;86.22
6020;BME280;3038;51.122;6.840;2022-12-07T08:48:49;101451.00;;;4.95;86.77
6020;BME280;3038;51.122;6.840;2022-12-07T08:51:16;101451.41;;;5.01;86.89
6020;BME280;3038;51.122;6.840;2022-12-07T08:53:42;101444.69;;;4.97;86.83
6020;BME280;3038;51.122;6.840;2022-12-07T08:56:09;101444.28;;;5.03;87.04
6020;BME280;3038;51.122;6.840;2022-12-07T08:58:35;101449.94;;;5.10;86.69
6020;BME280;3038;51.122;6.840;2022-12-07T09:01:02;101442.38;;;5.18;86.47
6020;BME280;3038;51.122;6.840;2022-12-07T09:03:28;101450.03;;;5.21;86.63
6020;BME280;3038;51.122;6.840;2022-12-07T09:05:53;101449.72;;;5.26;85.92
6020;BME280;3038;51.122;6.840;2022-12-07T09:08:20;101438.66;;;5.33;85.92
6020;BME280;3038;51.122;6.840;2022-12-07T09:10:45;101429.47;;;5.39;85.99
6020;BME280;3038;51.122;6.840;2022-12-07T09:13:11;101440.81;;;5.52;85.46
6020;BME280;3038;51.122;6.840;2022-12-07T09:15:36;101434.66;;;5.64;85.24
6020;BME280;3038;51.122;6.840;2022-12-07T09:18:02;101435.91;;;5.72;84.63
6020;BME280;3038;51.122;6.840;2022-12-07T09:20:28;101445.88;;;5.79;84.14
6020;BME280;3038;51.122;6.840;2022-12-07T09:22:53;101444.59;;;5.85;83.80
6020;BME280;3038;51.122;6.840;2022-12-07T09:25:18;101443.25;;;5.92;83.09
6020;BME280;3038;51.122;6.840;2022-12-07T09:27:44;101453.78;;;5.92;82.89
6020;BME280;3038;51.122;6.840;2022-12-07T09:30:09;101446.16;;;6.00;82.98
6020;BME280;3038;51.122;6.840;2022-12-07T09:32:35;101453.91;;;6.14;83.90
6020;BME280;3038;51.122;6.840;2022-12-07T09:35:00;101446.72;;;6.16;83.21
6020;BME280;3038;51.122;6.840;2022-12-07T09:37:25;101440.72;;;6.14;83.53
6020;BME280;3038;51.122;6.840;2022-12-07T09:39:51;101438.34;;;5.99;83.64
6020;BME280;3038;51.122;6.840;2022-12-07T09:42:51;101444.13;;;6.04;83.33
6020;BME280;3038;51.122;6.840;2022-12-07T09:45:26;101448.22;;;6.08;83.44
6020;BME280;3038;51.122;6.840;2022-12-07T09:47:52;101447.22;;;6.22;83.35
6020;BME280;3038;51.122;6.840;2022-12-07T09:50:23;101444.19;;;6.15;82.72
6020;BME280;3038;51.122;6.840;2022-12-07T09:52:50;101453.91;;;6.14;83.29
6020;BME280;3038;51.122;6.840;2022-12-07T09:55:25;101444.03;;;6.05;82.96
6020;BME280;3038;51.122;6.840;2022-12-07T09:57:51;101438.75;;;6.05;82.77
6020;BME280;3038;51.122;6.840;2022-12-07T10:00:19;101444.69;;;5.96;82.34
6020;BME280;3038;51.122;6.840;2022-12-07T10:02:51;101441.44;;;5.92;83.58
6020;BME280;3038;51.122;6.840;2022-12-07T10:05:22;101443.25;;;5.92;83.56
6020;BME280;3038;51.122;6.840;2022-12-07T10:07:50;101441.31;;;5.94;83.66
6020;BME280;3038;51.122;6.840;2022-12-07T10:10:22;101432.56;;;5.93;83.09
6020;BME280;3038;51.122;6.840;2022-12-07T10:12:55;101435.00;;;5.97;83.39
6020;BME280;3038;51.122;6.840;2022-12-07T10:15:21;101432.25;;;5.98;83.08
6020;BME280;3038;51.122;6.840;2022-12-07T10:17:52;101435.63;;;6.00;82.93
6020;BME280;3038;51.122;6.840;2022-12-07T10:20:23;101421.75;;;6.09;82.58
6020;BME280;3038;51.122;6.840;2022-12-07T10:23:01;101420.28;;;6.29;82.42
6020;BME280;3038;51.122;6.840;2022-12-07T10:25:29;101421.69;;;6.22;81.90
6020;BME280;3038;51.122;6.840;2022-12-07T10:28:17;101412.22;;;6.20;82.12
6020;BME280;3038;51.122;6.840;2022-12-07T10:30:57;101418.06;;;6.23;81.86
6020;BME280;3038;51.122;6.840;2022-12-07T10:35:56;101411.72;;;6.14;82.71
6020;BME280;3038;51.122;6.840;2022-12-07T10:38:21;101412.56;;;6.15;82.38
6020;BME280;3038;51.122;6.840;2022-12-07T10:40:47;101404.53;;;6.16;81.86
6020;BME280;3038;51.122;6.840;2022-12-07T10:43:17;101400.31;;;6.14;81.73
6020;BME280;3038;51.122;6.840;2022-12-07T10:51:51;101395.31;;;6.22;82.44
6020;BME280;3038;51.122;6.840;2022-12-07T10:57:16;101392.34;;;6.38;81.87
6020;BME280;3038;51.122;6.840;2022-12-07T10:59:56;101386.66;;;6.66;81.36
6020;BME280;3038;51.122;6.840;2022-12-07T11:05:30;101378.94;;;6.30;82.24
6020;BME280;3038;51.122;6.840;2022-12-07T11:08:21;101375.78;;;6.25;81.77
6020;BME280;3038;51.122;6.840;2022-12-07T11:13:56;101368.19;;;6.55;80.47
6020;BME280;3038;51.122;6.840;2022-12-07T11:22:06;101363.88;;;7.21;77.96
6020;BME280;3038;51.122;6.840;2022-12-07T11:24:54;101352.97;;;7.04;78.59
6020;BME280;3038;51.122;6.840;2022-12-07T11:27:41;101347.81;;;9.13;72.80
6020;BME280;3038;51.122;6.840;2022-12-07T11:30:21;101347.31;;;11.65;63.95
6020;BME280;3038;51.122;6.840;2022-12-07T11:36:02;101342.59;;;12.12;61.91
6020;BME280;3038;51.122;6.840;2022-12-07T11:38:52;101342.06;;;11.55;62.71
6020;BME280;3038;51.122;6.840;2022-12-07T11:41:24;101347.78;;;10.77;65.12
6020;BME280;3038;51.122;6.840;2022-12-07T11:46:28;101346.66;;;9.56;68.23
6020;BME280;3038;51.122;6.840;2022-12-07T11:49:02;101337.69;;;9.27;68.30
6020;BME280;3038;51.122;6.840;2022-12-07T11:51:29;101326.41;;;9.25;69.24
6020;BME280;3038;51.122;6.840;2022-12-07T11:54:03;101327.94;;;9.38;68.55
6020;BME280;3038;51.122;6.840;2022-12-07T11:56:30;101326.53;;;8.84;69.51
6020;BME280;3038;51.122;6.840;2022-12-07T12:02:14;101329.63;;;8.16;72.11
6020;BME280;3038;51.122;6.840;2022-12-07T12:04:49;101324.66;;;8.02;72.16
6020;BME280;3038;51.122;6.840;2022-12-07T12:07:21;101329.00;;;8.45;71.25
6020;BME280;3038;51.122;6.840;2022-12-07T12:09:54;101320.31;;;8.12;71.30
6020;BME280;3038;51.122;6.840;2022-12-07T12:20:40;101316.59;;;8.24;71.20
6020;BME280;3038;51.122;6.840;2022-12-07T12:25:45;101309.41;;;8.88;69.28
6020;BME280;3038;51.122;6.840;2022-12-07T12:33:52;101297.13;;;9.37;68.38
6020;BME280;3038;51.122;6.840;2022-12-07T12:36:47;101299.66;;;9.67;68.07
6020;BME280;3038;51.122;6.840;2022-12-07T12:39:15;101294.47;;;9.95;66.95
6020;BME280;3038;51.122;6.840;2022-12-07T12:46:56;101285.03;;;12.11;60.01
6020;BME280;3038;51.122;6.840;2022-12-07T12:49:30;101276.88;;;12.13;58.77
6020;BME280;3038;51.122;6.840;2022-12-07T12:51:59;101281.13;;;11.62;61.21
6020;BME280;3038;51.122;6.840;2022-12-07T12:54:33;101280.63;;;10.95;62.36
6020;BME280;3038;51.122;6.840;2022-12-07T12:57:17;101280.59;;;10.40;63.32
6020;BME280;3038;51.122;6.840;2022-12-07T13:02:30;101272.84;;;9.32;66.48
6020;BME280;3038;51.122;6.840;2022-12-07T13:05:17;101267.06;;;8.88;67.67
6020;BME280;3038;51.122;6.840;2022-12-07T13:15:38;101260.91;;;7.75;73.08
6020;BME280;3038;51.122;6.840;2022-12-07T13:21:00;101264.44;;;7.32;74.72
6020;BME280;3038;51.122;6.840;2022-12-07T13:23:35;101268.16;;;7.29;74.55
6020;BME280;3038;51.122;6.840;2022-12-07T13:26:06;101271.91;;;7.27;74.70
6020;BME280;3038;51.122;6.840;2022-12-07T13:28:39;101270.97;;;7.16;74.92
6020;BME280;3038;51.122;6.840;2022-12-07T13:33:50;101254.91;;;7.08;74.47
6020;BME280;3038;51.122;6.840;2022-12-07T13:36:21;101259.47;;;7.06;74.90
6020;BME280;3038;51.122;6.840;2022-12-07T13:41:19;101256.28;;;7.24;74.74
6020;BME280;3038;51.122;6.840;2022-12-07T13:44:33;101265.31;;;7.21;75.20
6020;BME280;3038;51.122;6.840;2022-12-07T13:49:22;101244.94;;;7.12;75.16
6020;BME280;3038;51.122;6.840;2022-12-07T13:51:48;101246.47;;;7.14;75.23
6020;BME280;3038;51.122;6.840;2022-12-07T13:54:14;101241.56;;;7.10;75.52
6020;BME280;3038;51.122;6.840;2022-12-07T13:56:40;101237.63;;;7.04;75.68
6020;BME280;3038;51.122;6.840;2022-12-07T13:59:14;101231.84;;;7.10;75.49
6020;BME280;3038;51.122;6.840;2022-12-07T14:01:41;101243.75;;;7.05;75.34
6020;BME280;3038;51.122;6.840;2022-12-07T14:04:34;101237.63;;;7.04;75.51
6020;BME280;3038;51.122;6.840;2022-12-07T14:07:18;101231.84;;;7.10;75.73
6020;BME280;3038;51.122;6.840;2022-12-07T14:09:56;101235.72;;;6.95;75.86
6020;BME280;3038;51.122;6.840;2022-12-07T14:12:24;101229.47;;;6.96;76.35
6020;BME280;3038;51.122;6.840;2022-12-07T14:14:50;101227.56;;;6.98;75.97
6020;BME280;3038;51.122;6.840;2022-12-07T14:17:19;101227.94;;;6.93;76.01
6020;BME280;3038;51.122;6.840;2022-12-07T14:20:27;101221.09;;;6.91;76.15
6020;BME280;3038;51.122;6.840;2022-12-07T14:22:32;101215.13;;;6.89;76.95
6020;BME280;3038;51.122;6.840;2022-12-07T14:30:18;101209.38;;;6.84;77.40
6020;BME280;3038;51.122;6.840;2022-12-07T14:32:44;101206.25;;;6.79;77.88
6020;BME280;3038;51.122;6.840;2022-12-07T14:35:16;101214.88;;;6.81;77.76
6020;BME280;3038;51.122;6.840;2022-12-07T14:37:43;101216.09;;;6.77;77.92
6020;BME280;3038;51.122;6.840;2022-12-07T14:40:13;101208.44;;;6.74;77.94
6020;BME280;3038;51.122;6.840;2022-12-07T14:42:39;101211.06;;;6.74;78.41
6020;BME280;3038;51.122;6.840;2022-12-07T14:45:06;101206.16;;;6.69;78.18
6020;BME280;3038;51.122;6.840;2022-12-07T14:47:31;101201.97;;;6.55;78.37
6020;BME280;3038;51.122;6.840;2022-12-07T14:49:57;101188.22;;;6.40;78.94
6020;BME280;3038;51.122;6.840;2022-12-07T14:52:26;101194.34;;;6.30;79.55
6020;BME280;3038;51.122;6.840;2022-12-07T14:54:52;101193.97;;;6.23;79.90
6020;BME280;3038;51.122;6.840;2022-12-07T14:57:18;101194.31;;;6.18;79.94
6020;BME280;3038;51.122;6.840;2022-12-07T14:59:43;101183.91;;;6.17;80.13
6020;BME280;3038;51.122;6.840;2022-12-07T15:02:10;101189.53;;;6.24;80.47
6020;BME280;3038;51.122;6.840;2022-12-07T15:04:36;101198.50;;;6.32;80.43
6020;BME280;3038;51.122;6.840;2022-12-07T15:07:03;101192.66;;;6.40;80.46
6020;BME280;3038;51.122;6.840;2022-12-07T15:09:29;101187.13;;;6.32;79.60
6020;BME280;3038;51.122;6.840;2022-12-07T15:11:54;101185.00;;;6.14;80.22
6020;BME280;3038;51.122;6.840;2022-12-07T15:14:20;101179.22;;;5.98;80.12